Las horas y fechas están en horario UTC
Sumar 1 hora en el horario de invierno y 2 en el de verano

Informes METAR cercanos

 

LEZL - Sevilla (civ/Mil, Spain
Distance from station: NNE 24km
Actualización: 19/09/2018 00:30
Despejado
Despejado
 Viento del SSO
Viento: SSO 15 km/h
Temperatura: 25°C
Rocío: 20°C
Humedad: 74%
Barómetro: 1016 hPa
Resumen: Despejado
Visibility: greater than 10 km
2018/09/18 22:30 LEZL 182230Z 21008KT CAVOK 25/20 Q1016 NOSIG
LEMO - Moron (sp-Usafb), Spain
Distance from station: E 38km
Actualización: 19/09/2018 00:00
Despejado
Despejado
 Viento del SSO
Viento: SSO 9 km/h
Temperatura: 23°C
Rocío: 20°C
Humedad: 83%
Barómetro: 1018 hPa
Resumen: Despejado
Visibility: greater than 10 km
2018/09/18 22:00 LEMO 182200Z 20005KT 170V230 CAVOK 23/20 Q1018 NOSIG
LEJR - Jerez (civ/Mil), Spain
Distance from station: S 53km
Actualización: 19/09/2018 00:30
Despejado
Despejado
 Viento del SE
Viento: SE 4 km/h
Temperatura: 22°C
Rocío: 21°C
Humedad: 94%
Barómetro: 1017 hPa
Clouds: Despejado
Visibility: 10 km
2018/09/18 22:30 LEJR 182230Z AUTO 14002KT 9999 NCD 22/21 Q1017
 
LERT - Rota Naval Stati, Spain
Distance from station: SSO 71km
Actualización: 19/09/2018 00:00
Despejado
Despejado
 Viento del calm
Viento: Calma
Temperatura: 24°C
Rocío: 22°C
Humedad: 89%
Barómetro: 1017 hPa
Resumen: Despejado
Visibility: greater than 10 km
2018/09/18 22:00 LERT 182200Z 00000KT CAVOK 24/22 Q1017 NOSIG
LEBA - Cordoba Airport, Spain
Distance from station: ENE 128km
Actualización: 19/09/2018 00:30
Despejado
Despejado
 Viento del NNO
Viento: NNO 6 km/h
Temperatura: 22°C
Rocío: 18°C
Humedad: 78%
Barómetro: 1017 hPa
Clouds: Despejado
Visibility: 10 km
2018/09/18 22:30 LEBA 182230Z AUTO 33003KT 300V360 9999 NCD 22/18 Q1017
LXGB - Gibraltar (civ/M, Gibraltar
Distance from station: SSE 137km
Actualización: 18/09/2018 23:50
Cubierto
Cubierto
 Viento del E
Viento: E 9 km/h
Temperatura: 23°C
Rocío: 22°C
Humedad: 94%
Barómetro: 1017 hPa
Clouds: Cubierto
Visibility: 6 km
Cloud details: Cubierto 91 m
2018/09/18 21:50 LXGB 182150Z AUTO 08005KT 6000 // OVC003/// 23/22 Q1017
 
LEMG - Malaga (civ/Mil), Spain
Distance from station: ESE 150km
Actualización: 19/09/2018 00:30
Few Clouds
Few Clouds
 Viento del calm
Viento: Calma
Temperatura: 24°C
Rocío: 22°C
Humedad: 89%
Barómetro: 1018 hPa
Clouds: Few Clouds
Visibility: 10 km
Cloud details: Few Clouds 183 m
2018/09/18 22:30 LEMG 182230Z 00000KT 9999 FEW006 24/22 Q1018 NOSIG
GMTT - Tangier/Boukhalf, Morocco
Distance from station: S 169km
Actualización: 19/09/2018 00:30
Parcialmente nuboso
Parcialmente nuboso
 Viento del calm
Viento: Calma
Temperatura: 21°C
Rocío: 17°C
Humedad: 78%
Barómetro: 1017 hPa
Clouds: Parcialmente nuboso
Visibility: 8 km
Cloud details: Parcialmente nuboso 488 m
2018/09/18 22:30 GMTT 182230Z 00000KT 8000 SCT016 21/17 Q1017 NOSIG
LPFR - Faro, Portugal
Distance from station: O 172km
Actualización: 19/09/2018 00:30
Despejado
Despejado
 Viento del NO
Viento: NO 17 km/h
Temperatura: 26°C
Rocío: 12°C
Humedad: 42%
Barómetro: 1017 hPa
Resumen: Despejado
Visibility: greater than 10 km
2018/09/18 22:30 LPFR 182230Z 31009KT CAVOK 26/12 Q1017
 
LPBJ - Beja (por/Ger-Af, Portugal
Distance from station: ONO 192km
Actualización: 19/09/2018 00:00
Despejado
Despejado
 Viento del ONO
Viento: ONO 13 km/h
Temperatura: 21°C
Rocío: 12°C
Humedad: 57%
Barómetro: 1018 hPa
Resumen: Despejado
Visibility: greater than 10 km
2018/09/18 22:00 LPBJ 182200Z 29007KT CAVOK 21/12 Q1018
LEBZ - Talavera Ab/Bada, Spain
Distance from station: NNO 194km
Actualización: 18/09/2018 21:00
NOT Current
Despejado
Despejado
 Viento del O
Viento: O 9 km/h
Temperatura: 27°C
Heat Index: 27°C
Rocío: 13°C
Humedad: 42%
Barómetro: 1016 hPa
Resumen: Despejado
Visibility: greater than 10 km
2018/09/18 19:00 LEBZ 181900Z 27005KT CAVOK 27/13 Q1016
LEMD - Madrid/Barajas, Spain
Distance from station: NE 415km
Actualización: 19/09/2018 00:30
Few Clouds
Few Clouds
 Viento del N
Viento: N 7 km/h
Temperatura: 21°C
Rocío: 14°C
Humedad: 64%
Barómetro: 1020 hPa
Clouds: Few Clouds
Visibility: 10 km
Cloud details: Few Clouds 2286 m
2018/09/18 22:30 LEMD 182230Z 35004KT 9999 FEW075 21/14 Q1020 NOSIG